Time;durP1;ratioP1;P1;durP2;ratioP2;P2;SDS_P1;SDS_P2;PMS_P1;PMS_P2;Temp;Humidity;BMP_temperature;BMP_pressure;BME280_temperature;BME280_humidity;BME280_pressure;Samples;Min_cycle;Max_cycle;Signal;HPM_P1;HPM_P2
2022/05/06 00:01:17;;;;;;;7.70;6.90;;;16.10;93.80;;;;;;6278942;28;20817;-63
2022/05/06 00:04:23;;;;;;;8.53;7.77;;;16.10;93.90;;;;;;6279210;28;20532;-63
2022/05/06 00:07:27;;;;;;;7.60;7.00;;;16.10;94.00;;;;;;6278963;28;20466;-63
2022/05/06 00:10:31;;;;;;;8.70;8.00;;;16.10;94.00;;;;;;6279366;28;20466;-62
2022/05/06 00:13:35;;;;;;;8.93;8.13;;;16.10;93.90;;;;;;6279280;28;20798;-62
2022/05/06 00:16:38;;;;;;;8.20;7.50;;;16.10;93.80;;;;;;6279412;28;20470;-62
2022/05/06 00:19:43;;;;;;;8.30;7.50;;;16.10;93.90;;;;;;6278868;28;20788;-65
2022/05/06 00:22:46;;;;;;;9.00;8.20;;;16.00;94.00;;;;;;6279000;28;20818;-66
2022/05/06 00:25:49;;;;;;;7.60;7.00;;;16.10;94.10;;;;;;6280113;28;20474;-63
2022/05/06 00:29:17;;;;;;;8.87;8.07;;;16.00;94.10;;;;;;6278876;28;20470;-66
2022/05/06 00:32:20;;;;;;;8.50;7.80;;;16.10;94.20;;;;;;6278638;28;20549;-65
2022/05/06 00:35:25;;;;;;;8.20;7.57;;;16.10;94.20;;;;;;6281442;28;21039;-62
2022/05/06 00:38:29;;;;;;;8.33;7.63;;;16.00;94.30;;;;;;6279760;28;20482;-63
2022/05/06 00:41:34;;;;;;;7.83;7.13;;;16.00;94.50;;;;;;6280723;28;20477;-63
2022/05/06 00:44:37;;;;;;;8.10;7.30;;;16.00;94.60;;;;;;6278807;28;20471;-62
2022/05/06 00:47:40;;;;;;;8.60;7.67;;;16.00;94.80;;;;;;6278501;28;20549;-61
2022/05/06 00:50:46;;;;;;;8.20;7.60;;;16.00;94.80;;;;;;6273363;28;20470;-61
2022/05/06 00:53:49;;;;;;;8.10;7.50;;;16.00;95.00;;;;;;6278111;28;20477;-62
2022/05/06 00:56:54;;;;;;;8.63;7.70;;;15.90;95.10;;;;;;6277917;28;20469;-62
2022/05/06 01:03:18;;;;;;;8.63;7.67;;;15.90;95.10;;;;;;6277972;28;20818;-64
2022/05/06 01:06:23;;;;;;;9.43;8.57;;;15.90;95.40;;;;;;6277635;28;20543;-64
2022/05/06 01:09:26;;;;;;;8.43;7.70;;;15.90;95.60;;;;;;6277967;28;20485;-64
2022/05/06 01:12:29;;;;;;;8.40;7.80;;;15.80;95.60;;;;;;6277738;28;20497;-64
2022/05/06 01:15:32;;;;;;;8.23;7.57;;;15.80;95.70;;;;;;6277767;28;20485;-63
2022/05/06 01:18:35;;;;;;;7.77;7.03;;;15.80;95.80;;;;;;6277258;28;20473;-62
2022/05/06 01:21:52;;;;;;;8.63;7.93;;;15.80;95.90;;;;;;6277494;28;20446;-62
2022/05/06 01:24:55;;;;;;;9.20;8.50;;;15.80;96.10;;;;;;6277241;28;20938;-62
2022/05/06 01:28:03;;;;;;;8.10;7.40;;;15.80;96.10;;;;;;6277832;28;20462;-62
2022/05/06 01:31:08;;;;;;;8.83;8.03;;;15.70;96.20;;;;;;6277143;28;20961;-65
2022/05/06 01:34:13;;;;;;;7.87;7.27;;;15.70;96.30;;;;;;6277671;28;20937;-65
2022/05/06 01:37:20;;;;;;;8.90;8.20;;;15.80;96.50;;;;;;6276955;28;20945;-62
2022/05/06 01:40:26;;;;;;;8.00;7.30;;;15.70;96.50;;;;;;6277200;28;20470;-62
2022/05/06 01:43:37;;;;;;;7.90;7.20;;;15.70;96.60;;;;;;6276582;28;20470;-62
2022/05/06 01:46:40;;;;;;;9.27;8.47;;;15.70;96.60;;;;;;6276822;28;20482;-65
2022/05/06 01:49:46;;;;;;;7.93;7.20;;;15.70;96.70;;;;;;6277533;28;20466;-65
2022/05/06 01:52:51;;;;;;;9.93;7.50;;;15.70;96.80;;;;;;6277078;28;20984;-65
2022/05/06 01:55:54;;;;;;;8.83;8.13;;;15.70;96.80;;;;;;6276979;28;20474;-62
2022/05/06 01:58:58;;;;;;;7.83;7.20;;;15.70;96.80;;;;;;6276479;28;20965;-62
2022/05/06 02:02:01;;;;;;;9.00;8.30;;;15.70;96.90;;;;;;6276098;28;20488;-62
2022/05/06 02:05:19;;;;;;;7.93;7.17;;;15.70;96.90;;;;;;6276201;28;20474;-63
2022/05/06 02:08:24;;;;;;;8.37;7.50;;;15.70;97.10;;;;;;6276084;28;20475;-63
2022/05/06 02:11:27;;;;;;;8.67;7.87;;;15.70;97.50;;;;;;6276227;28;20477;-62
2022/05/06 02:14:30;;;;;;;8.77;7.97;;;15.70;97.20;;;;;;6275969;28;20816;-62
2022/05/06 02:17:34;;;;;;;8.20;7.60;;;15.60;97.50;;;;;;6275818;28;20549;-62
2022/05/06 02:20:37;;;;;;;7.80;7.17;;;15.60;97.30;;;;;;6275529;28;20474;-62
2022/05/06 02:23:42;;;;;;;8.97;8.07;;;15.50;97.70;;;;;;6275819;28;20477;-62
2022/05/06 02:26:46;;;;;;;9.17;8.47;;;15.50;97.60;;;;;;6275778;28;20470;-62
2022/05/06 02:33:15;;;;;;;8.43;7.53;;;15.40;97.80;;;;;;6276051;28;20475;-64
2022/05/06 02:36:18;;;;;;;8.80;8.00;;;15.40;98.00;;;;;;6275451;28;20520;-61
2022/05/06 02:39:22;;;;;;;8.00;7.30;;;15.40;98.00;;;;;;6275664;28;20470;-61
2022/05/06 02:42:26;;;;;;;9.13;8.23;;;15.40;98.10;;;;;;6275541;28;20485;-61
2022/05/06 02:45:29;;;;;;;9.87;7.23;;;15.40;98.20;;;;;;6275256;28;20466;-61
2022/05/06 02:48:32;;;;;;;8.40;7.67;;;15.40;98.20;;;;;;6275284;28;20997;-64
2022/05/06 02:51:35;;;;;;;10.43;7.93;;;15.30;98.20;;;;;;6275104;28;20454;-65
2022/05/06 02:54:40;;;;;;;7.90;7.20;;;15.40;98.20;;;;;;6275170;28;20913;-64
2022/05/06 02:57:43;;;;;;;8.40;7.57;;;15.30;98.10;;;;;;6275116;28;20450;-62
2022/05/06 03:00:46;;;;;;;7.20;6.60;;;15.40;98.30;;;;;;6275069;28;20454;-62
2022/05/06 03:03:49;;;;;;;9.13;7.53;;;15.30;98.60;;;;;;6275773;28;20445;-62
2022/05/06 03:06:52;;;;;;;9.40;8.50;;;15.30;98.60;;;;;;6274877;28;20486;-62
2022/05/06 03:09:57;;;;;;;7.90;7.30;;;15.30;98.20;;;;;;6274414;28;20900;-62
2022/05/06 03:13:01;;;;;;;9.13;8.33;;;15.30;98.30;;;;;;6275141;28;20462;-62
2022/05/06 03:16:05;;;;;;;8.57;7.87;;;15.30;98.20;;;;;;6274755;28;20489;-62
2022/05/06 03:19:08;;;;;;;8.03;7.43;;;15.30;98.40;;;;;;6274912;28;20540;-62
2022/05/06 03:22:11;;;;;;;7.77;7.07;;;15.30;98.40;;;;;;6275121;28;20964;-65
2022/05/06 03:25:16;;;;;;;8.07;7.47;;;15.20;98.70;;;;;;6275078;28;20958;-65
2022/05/06 03:28:20;;;;;;;8.43;7.73;;;15.20;98.50;;;;;;6274222;28;20470;-65
2022/05/06 03:31:23;;;;;;;8.13;7.40;;;15.20;98.50;;;;;;6274424;28;20481;-64
2022/05/06 03:34:26;;;;;;;8.10;7.00;;;15.20;98.40;;;;;;6274494;28;20470;-65
2022/05/06 03:37:29;;;;;;;6.90;6.30;;;15.20;98.40;;;;;;6275333;28;20482;-63
2022/05/06 03:40:34;;;;;;;8.53;7.33;;;15.20;98.80;;;;;;6275195;28;20962;-64
2022/05/06 03:43:37;;;;;;;7.77;6.93;;;15.20;98.40;;;;;;6275335;28;20471;-65
2022/05/06 03:46:40;;;;;;;9.27;7.03;;;15.20;98.40;;;;;;6274464;28;20477;-66
2022/05/06 03:51:20;;;;;;;9.77;7.57;;;15.20;98.50;;;;;;6274725;28;21027;-65
2022/05/06 03:53:14;;;;;;;8.27;7.67;;;15.20;98.40;;;;;;6274667;28;20477;-66
2022/05/06 03:56:18;;;;;;;9.17;7.80;;;15.20;98.30;;;;;;6274416;28;20481;-65
2022/05/06 03:59:21;;;;;;;8.20;7.43;;;15.20;98.30;;;;;;6274503;28;20842;-62
2022/05/06 04:02:24;;;;;;;8.53;7.70;;;15.30;98.30;;;;;;6265308;28;20493;-65
2022/05/06 04:05:28;;;;;;;8.43;7.73;;;15.30;98.50;;;;;;6274498;28;20506;-65
2022/05/06 04:08:32;;;;;;;8.17;7.47;;;15.20;98.70;;;;;;6273887;28;20466;-66
2022/05/06 04:11:36;;;;;;;8.20;7.40;;;15.30;99.30;;;;;;6275269;28;20478;-61
2022/05/06 04:14:39;;;;;;;9.37;8.63;;;15.20;99.10;;;;;;6274312;28;20826;-61
2022/05/06 04:17:42;;;;;;;8.60;7.80;;;15.20;99.30;;;;;;6274219;28;20471;-61
2022/05/06 04:24:07;;;;;;;10.07;9.07;;;15.20;99.30;;;;;;6279737;28;20474;-64
2022/05/06 04:27:12;;;;;;;8.53;7.93;;;15.20;99.50;;;;;;6279247;28;20474;-64
2022/05/06 04:30:15;;;;;;;8.30;7.70;;;15.20;99.40;;;;;;6279229;28;20474;-64
2022/05/06 04:33:18;;;;;;;9.07;8.27;;;15.30;99.70;;;;;;6279093;28;20481;-65
2022/05/06 04:36:22;;;;;;;8.47;7.80;;;15.30;99.80;;;;;;6279129;28;20584;-65
2022/05/06 04:39:25;;;;;;;8.07;7.47;;;15.40;99.90;;;;;;6278689;28;20470;-65
2022/05/06 04:42:29;;;;;;;9.13;8.33;;;15.40;99.90;;;;;;6278422;28;20857;-65
2022/05/06 04:45:32;;;;;;;9.87;9.07;;;15.40;99.90;;;;;;6278909;28;20504;-65
2022/05/06 04:48:35;;;;;;;9.30;8.60;;;15.40;99.90;;;;;;6278887;28;20478;-65
2022/05/06 04:51:39;;;;;;;9.40;8.60;;;15.40;99.90;;;;;;6278588;28;20461;-65
2022/05/06 04:54:42;;;;;;;9.90;8.90;;;15.40;99.90;;;;;;6278976;28;20461;-65
2022/05/06 04:57:46;;;;;;;9.70;8.90;;;15.40;99.90;;;;;;6279499;28;20458;-65
2022/05/06 05:00:49;;;;;;;10.30;9.30;;;15.40;99.90;;;;;;6279040;28;20450;-65
2022/05/06 05:03:52;;;;;;;9.80;9.00;;;15.40;99.90;;;;;;6276461;28;20517;-64
2022/05/06 05:06:56;;;;;;;10.40;9.50;;;15.40;99.90;;;;;;6277152;28;20482;-66
2022/05/06 05:09:59;;;;;;;9.57;8.20;;;15.30;99.90;;;;;;6277728;28;20541;-66
2022/05/06 05:13:04;;;;;;;9.10;8.20;;;15.30;99.90;;;;;;6277470;28;20474;-65
2022/05/06 05:16:08;;;;;;;10.10;9.30;;;15.30;99.90;;;;;;6277624;28;20474;-65
2022/05/06 05:19:11;;;;;;;10.43;9.40;;;15.30;99.90;;;;;;6277037;28;20539;-62
2022/05/06 05:22:14;;;;;;;9.57;8.77;;;15.40;99.90;;;;;;6277213;28;20783;-62
2022/05/06 05:25:17;;;;;;;11.57;10.57;;;15.50;99.90;;;;;;6277459;28;20467;-64
2022/05/06 05:28:22;;;;;;;10.77;9.83;;;15.50;99.90;;;;;;6277674;28;20478;-64
2022/05/06 05:31:25;;;;;;;11.07;10.03;;;15.50;99.90;;;;;;6277263;28;20482;-65
2022/05/06 05:34:28;;;;;;;11.00;9.93;;;15.40;99.90;;;;;;6278852;28;20474;-65
2022/05/06 05:37:31;;;;;;;11.17;10.17;;;15.40;99.90;;;;;;6278034;28;20942;-63
2022/05/06 05:40:34;;;;;;;10.20;9.40;;;15.40;99.90;;;;;;6277312;28;20478;-63
2022/05/06 05:50:20;;;;;;;10.17;9.47;;;15.40;99.90;;;;;;6276682;28;20478;-61
2022/05/06 05:53:23;;;;;;;12.20;11.17;;;15.40;99.90;;;;;;6276678;28;20462;-61
2022/05/06 05:56:26;;;;;;;11.03;10.10;;;15.50;99.90;;;;;;6277444;28;20475;-61
2022/05/06 05:59:30;;;;;;;11.00;10.00;;;15.50;99.90;;;;;;6278356;28;20478;-61
2022/05/06 06:02:34;;;;;;;11.93;10.63;;;15.50;99.90;;;;;;6276986;28;20471;-61
2022/05/06 06:05:38;;;;;;;10.20;9.37;;;15.50;99.90;;;;;;6276990;28;20965;-61
2022/05/06 06:08:41;;;;;;;11.53;10.43;;;15.60;99.90;;;;;;6276270;28;20812;-61
2022/05/06 06:11:44;;;;;;;11.53;10.50;;;15.60;99.90;;;;;;6276524;28;20466;-61
2022/05/06 06:14:48;;;;;;;11.73;10.67;;;15.60;99.90;;;;;;6276082;28;20981;-61
2022/05/06 06:17:51;;;;;;;11.00;9.87;;;15.70;99.90;;;;;;6275785;28;20476;-61
2022/05/06 06:20:56;;;;;;;12.10;11.00;;;15.80;99.90;;;;;;6276123;28;20474;-62
2022/05/06 06:23:59;;;;;;;12.70;11.57;;;15.90;99.90;;;;;;6275577;28;20477;-63
2022/05/06 06:27:02;;;;;;;11.27;10.27;;;15.90;99.90;;;;;;6275729;28;20466;-62
2022/05/06 06:30:08;;;;;;;10.73;9.83;;;16.00;99.90;;;;;;6275617;28;20474;-63
2022/05/06 06:33:11;;;;;;;12.40;11.33;;;16.10;99.90;;;;;;6275727;28;20981;-63
2022/05/06 06:36:14;;;;;;;10.10;9.30;;;16.10;99.90;;;;;;6275381;28;20478;-63
2022/05/06 06:39:17;;;;;;;10.87;9.80;;;16.00;99.90;;;;;;6276649;28;20989;-64
2022/05/06 06:42:20;;;;;;;9.73;8.90;;;16.00;99.90;;;;;;6276065;28;20965;-65
2022/05/06 06:45:25;;;;;;;12.13;10.53;;;16.00;99.90;;;;;;6276386;28;20489;-63
2022/05/06 06:48:28;;;;;;;10.00;9.10;;;16.00;99.90;;;;;;6276262;28;20490;-64
2022/05/06 06:51:32;;;;;;;11.20;9.10;;;16.00;99.90;;;;;;6275752;28;20777;-65
2022/05/06 06:54:35;;;;;;;12.03;10.50;;;16.00;99.90;;;;;;6275190;28;20474;-65
2022/05/06 06:57:38;;;;;;;12.50;11.40;;;16.10;99.90;;;;;;6275379;28;20458;-64
2022/05/06 07:00:43;;;;;;;11.33;10.30;;;16.00;99.90;;;;;;6275578;28;20453;-63
2022/05/06 07:03:46;;;;;;;11.73;10.40;;;15.90;99.90;;;;;;6275414;28;20445;-64
2022/05/06 07:13:31;;;;;;;10.67;9.57;;;16.00;99.90;;;;;;6266330;28;20475;-66
2022/05/06 07:16:38;;;;;;;11.07;9.97;;;16.20;99.90;;;;;;6276120;28;20489;-65
2022/05/06 07:19:41;;;;;;;10.13;9.13;;;16.40;99.90;;;;;;6275386;28;20961;-62
2022/05/06 07:22:44;;;;;;;10.90;9.90;;;16.50;99.90;;;;;;6274712;28;20470;-62
2022/05/06 07:25:52;;;;;;;13.10;9.37;;;16.60;99.90;;;;;;6274856;28;20466;-62
2022/05/06 07:28:55;;;;;;;11.43;10.23;;;16.70;99.90;;;;;;6263190;28;20476;-62
2022/05/06 07:31:59;;;;;;;11.43;10.33;;;16.80;99.90;;;;;;6260456;28;20493;-60
2022/05/06 07:35:03;;;;;;;9.93;8.90;;;16.80;99.90;;;;;;6255155;28;20481;-64
2022/05/06 07:38:06;;;;;;;10.10;9.10;;;16.80;99.90;;;;;;6249839;28;20820;-65
2022/05/06 07:41:09;;;;;;;10.17;9.17;;;16.90;99.90;;;;;;6254664;28;20471;-63
2022/05/06 07:44:13;;;;;;;10.40;9.50;;;17.00;99.90;;;;;;6251673;28;20474;-64
2022/05/06 07:47:17;;;;;;;9.93;9.00;;;17.10;99.90;;;;;;6226590;28;20526;-60
2022/05/06 07:50:26;;;;;;;9.60;8.77;;;17.20;99.90;;;;;;6225479;28;20483;-61
2022/05/06 07:53:29;;;;;;;9.43;8.37;;;17.30;99.90;;;;;;6225292;28;20483;-62
2022/05/06 07:56:32;;;;;;;9.87;8.47;;;17.30;99.90;;;;;;6229204;28;20476;-61
2022/05/06 07:59:35;;;;;;;9.30;8.50;;;17.40;99.90;;;;;;6230036;28;20463;-61
2022/05/06 08:06:02;;;;;;;8.97;7.10;;;17.60;99.60;;;;;;6254172;28;20476;-63
2022/05/06 08:09:05;;;;;;;8.00;7.30;;;17.70;99.10;;;;;;6254264;28;20497;-64
2022/05/06 08:12:10;;;;;;;8.40;7.70;;;17.70;99.50;;;;;;6253871;28;20962;-63
2022/05/06 08:15:13;;;;;;;8.40;7.60;;;17.70;99.20;;;;;;6253976;28;20694;-62
2022/05/06 08:18:18;;;;;;;8.20;7.50;;;17.70;99.10;;;;;;6249339;28;20997;-62
2022/05/06 08:21:22;;;;;;;8.90;7.27;;;17.50;99.20;;;;;;6253370;28;20482;-62
2022/05/06 08:24:27;;;;;;;8.33;7.70;;;17.50;99.30;;;;;;6254074;28;20478;-63
2022/05/06 08:27:35;;;;;;;9.70;8.70;;;17.50;99.20;;;;;;6253587;28;20479;-63
2022/05/06 08:30:39;;;;;;;8.43;7.63;;;17.50;99.40;;;;;;6228714;28;20472;-63
2022/05/06 08:33:43;;;;;;;8.60;7.57;;;17.60;99.50;;;;;;6229284;28;20205;-63
2022/05/06 08:36:47;;;;;;;8.47;7.77;;;17.60;99.50;;;;;;6240992;28;20459;-63
2022/05/06 08:39:51;;;;;;;12.93;9.03;;;17.60;99.40;;;;;;6253300;28;20764;-63
2022/05/06 08:42:54;;;;;;;8.97;7.63;;;17.60;99.40;;;;;;6253540;28;20447;-63
2022/05/06 08:52:43;;;;;;;8.03;7.33;;;18.00;99.20;;;;;;6253386;28;20517;-61
2022/05/06 08:55:47;;;;;;;8.83;8.03;;;18.20;98.40;;;;;;6253157;28;20235;-62
2022/05/06 08:58:50;;;;;;;8.50;7.70;;;18.30;98.20;;;;;;6252749;28;20478;-62
2022/05/06 09:01:55;;;;;;;9.87;8.27;;;18.40;98.00;;;;;;6251036;28;20228;-62
2022/05/06 09:05:00;;;;;;;7.53;6.83;;;18.60;97.70;;;;;;6228495;28;20315;-63
2022/05/06 09:08:05;;;;;;;8.17;7.37;;;18.70;97.40;;;;;;6226876;28;20476;-65
2022/05/06 09:11:08;;;;;;;9.13;7.40;;;18.70;97.40;;;;;;6227890;28;20237;-63
2022/05/06 09:14:15;;;;;;;8.80;8.00;;;18.60;97.10;;;;;;6228622;28;20225;-63
2022/05/06 09:17:20;;;;;;;9.20;7.70;;;18.50;97.20;;;;;;6227868;28;20250;-64
2022/05/06 09:20:26;;;;;;;8.40;7.40;;;18.50;97.60;;;;;;6231549;28;20472;-64
2022/05/06 09:23:30;;;;;;;8.20;7.53;;;18.40;97.70;;;;;;6221072;28;20233;-64
2022/05/06 09:26:32;;;;;;;7.60;7.00;;;18.50;97.80;;;;;;6228039;28;20241;-65
2022/05/06 09:29:37;;;;;;;8.50;7.77;;;18.50;97.80;;;;;;6233840;28;20308;-64
2022/05/06 09:32:40;;;;;;;9.10;8.30;;;18.60;97.90;;;;;;6252470;28;20229;-63
2022/05/06 09:35:44;;;;;;;7.90;7.20;;;18.70;97.80;;;;;;6248714;28;20217;-66
2022/05/06 09:39:02;;;;;;;8.97;8.27;;;18.70;97.80;;;;;;6227667;28;20225;-63
2022/05/06 09:42:06;;;;;;;7.80;7.10;;;18.70;97.40;;;;;;6234216;28;20220;-65
2022/05/06 09:45:11;;;;;;;8.70;7.57;;;18.60;97.60;;;;;;6261633;28;20471;-65
2022/05/06 09:48:15;;;;;;;8.87;8.07;;;18.70;97.70;;;;;;6262537;28;20215;-66
2022/05/06 09:51:28;;;;;;;7.93;7.20;;;18.70;97.70;;;;;;6261511;28;20549;-66
2022/05/06 09:54:32;;;;;;;8.70;7.80;;;18.60;97.50;;;;;;6260639;28;20224;-66
2022/05/06 09:57:37;;;;;;;13.00;8.67;;;18.50;97.70;;;;;;6264911;28;20475;-66
2022/05/06 10:00:41;;;;;;;10.10;9.03;;;18.40;98.00;;;;;;6237253;28;20458;-67
2022/05/06 10:03:44;;;;;;;9.13;8.33;;;18.40;98.20;;;;;;6236382;28;20201;-65
2022/05/06 10:06:50;;;;;;;8.83;7.93;;;18.40;98.50;;;;;;6257047;28;20229;-65
2022/05/06 10:09:58;;;;;;;9.23;8.33;;;18.40;98.60;;;;;;6260955;28;20220;-67
2022/05/06 10:13:05;;;;;;;8.20;7.37;;;18.30;98.50;;;;;;6243301;28;20558;-66
2022/05/06 10:16:08;;;;;;;9.27;8.03;;;18.40;98.50;;;;;;6248674;28;20239;-62
2022/05/06 10:19:25;;;;;;;9.80;8.10;;;18.40;98.50;;;;;;6251170;28;20232;-62
2022/05/06 10:22:59;;;;;;;8.70;8.10;;;18.40;98.50;;;;;;6259357;28;20224;-62
2022/05/06 10:26:02;;;;;;;9.80;8.73;;;18.50;98.80;;;;;;6270382;28;20663;-61
2022/05/06 10:32:51;;;;;;;9.50;8.63;;;18.50;98.90;;;;;;6265002;28;20247;-61
2022/05/06 10:35:55;;;;;;;9.70;8.90;;;18.60;99.10;;;;;;6258370;28;20242;-62
2022/05/06 10:38:59;;;;;;;8.90;8.00;;;18.60;98.90;;;;;;6256466;28;20250;-63
2022/05/06 10:42:04;;;;;;;9.17;8.00;;;18.70;99.00;;;;;;6258779;28;20235;-61
2022/05/06 10:45:23;;;;;;;9.13;8.33;;;18.60;98.80;;;;;;6266167;28;20710;-63
2022/05/06 10:48:26;;;;;;;10.67;8.33;;;18.60;98.60;;;;;;6250891;28;20795;-64
2022/05/06 10:51:29;;;;;;;9.33;8.00;;;18.80;98.30;;;;;;6250495;28;20967;-62
2022/05/06 10:54:34;;;;;;;9.03;8.30;;;18.90;97.80;;;;;;6250448;28;20549;-62
2022/05/06 10:57:49;;;;;;;9.70;8.20;;;18.90;97.40;;;;;;6250246;28;20240;-62
2022/05/06 11:00:59;;;;;;;8.37;7.57;;;19.10;97.20;;;;;;6248405;28;20562;-63
2022/05/06 11:04:03;;;;;;;9.23;8.17;;;19.10;96.90;;;;;;6232758;28;20225;-63
2022/05/06 11:07:12;;;;;;;7.23;6.67;;;19.10;96.50;;;;;;6251059;28;20228;-62
2022/05/06 11:10:18;;;;;;;8.63;7.77;;;19.10;96.60;;;;;;6250320;28;20232;-62
2022/05/06 11:13:25;;;;;;;8.37;7.67;;;19.10;96.60;;;;;;6250004;28;20294;-63
2022/05/06 11:16:28;;;;;;;10.57;7.83;;;19.00;96.60;;;;;;6249993;28;20240;-63
2022/05/06 11:19:34;;;;;;;8.57;7.73;;;18.90;96.00;;;;;;6247581;28;20225;-62
2022/05/06 11:22:39;;;;;;;8.83;8.00;;;19.00;96.30;;;;;;6230916;28;20306;-64
2022/05/06 11:25:47;;;;;;;8.73;7.07;;;18.90;96.20;;;;;;6229597;28;20244;-66
2022/05/06 11:29:01;;;;;;;8.20;7.60;;;18.80;96.50;;;;;;6223282;28;20243;-65
2022/05/06 11:32:05;;;;;;;7.70;6.93;;;18.80;96.40;;;;;;6257150;28;20236;-65
2022/05/06 11:35:11;;;;;;;8.57;7.87;;;18.90;96.00;;;;;;6252654;28;20258;-64
2022/05/06 11:38:15;;;;;;;9.63;8.63;;;19.00;96.30;;;;;;6247714;28;20238;-66
2022/05/06 11:41:20;;;;;;;8.30;7.53;;;19.00;96.10;;;;;;6249770;28;20228;-64
2022/05/06 11:47:27;;;;;;;9.47;7.80;;;18.90;95.90;;;;;;6250418;28;20236;-64
2022/05/06 11:47:50;;;;;;;7.80;7.10;;;18.90;95.80;;;;;;6249475;28;20228;-64
2022/05/06 11:50:57;;;;;;;9.40;8.10;;;18.80;95.50;;;;;;6248735;28;20220;-64
2022/05/06 11:54:01;;;;;;;7.47;6.87;;;18.80;95.40;;;;;;6248537;28;20229;-64
2022/05/06 11:57:14;;;;;;;6.97;6.47;;;18.80;95.30;;;;;;6247305;28;20243;-63
2022/05/06 12:00:18;;;;;;;7.67;6.97;;;18.70;95.50;;;;;;6246919;28;20220;-63
2022/05/06 12:03:23;;;;;;;7.73;7.13;;;18.70;95.30;;;;;;6248456;28;20664;-63
2022/05/06 12:06:27;;;;;;;7.60;6.90;;;18.50;95.30;;;;;;6247725;28;20293;-64
2022/05/06 12:09:41;;;;;;;8.27;7.57;;;18.40;95.30;;;;;;6248722;28;20220;-64
2022/05/06 12:12:56;;;;;;;7.70;7.10;;;18.40;95.50;;;;;;6229573;28;20236;-64
2022/05/06 12:16:09;;;;;;;8.70;7.63;;;18.30;95.80;;;;;;6241032;28;20463;-65
2022/05/06 12:19:12;;;;;;;8.20;7.40;;;18.30;96.10;;;;;;6253598;28;20229;-64
2022/05/06 12:22:16;;;;;;;7.17;6.43;;;18.30;96.60;;;;;;6263025;28;20656;-62
2022/05/06 12:25:19;;;;;;;7.83;7.20;;;18.30;96.30;;;;;;6248838;28;20689;-63
2022/05/06 12:28:24;;;;;;;7.50;6.80;;;18.40;96.40;;;;;;6248969;28;20475;-63
2022/05/06 12:31:29;;;;;;;8.40;6.90;;;18.30;96.60;;;;;;6248765;28;20627;-62
2022/05/06 12:34:33;;;;;;;7.43;6.83;;;18.20;96.20;;;;;;6249220;28;20228;-62
2022/05/06 12:37:37;;;;;;;8.10;7.07;;;18.20;96.20;;;;;;6234923;28;20231;-63
2022/05/06 12:40:40;;;;;;;9.03;6.53;;;18.20;96.20;;;;;;6249257;28;20467;-62
2022/05/06 12:43:51;;;;;;;8.10;6.77;;;18.20;96.20;;;;;;6252958;28;20954;-62
2022/05/06 12:46:54;;;;;;;7.83;7.03;;;18.20;96.60;;;;;;6257377;28;20687;-63
2022/05/06 12:49:56;;;;;;;7.70;7.00;;;18.20;96.20;;;;;;6252276;28;20988;-62
2022/05/06 12:53:03;;;;;;;7.60;6.87;;;18.10;96.20;;;;;;6252024;28;20558;-62
2022/05/06 12:56:07;;;;;;;7.23;6.63;;;18.00;96.10;;;;;;6251839;28;20734;-62
2022/05/06 12:59:12;;;;;;;7.37;6.70;;;18.00;96.60;;;;;;6251764;28;20543;-62
2022/05/06 13:02:15;;;;;;;7.23;6.60;;;17.90;96.80;;;;;;6256083;28;20227;-62
2022/05/06 13:05:18;;;;;;;7.17;6.57;;;17.90;97.00;;;;;;6262062;28;20572;-62
2022/05/06 13:08:21;;;;;;;8.07;7.03;;;17.90;97.10;;;;;;6256096;28;20479;-61
2022/05/06 13:11:25;;;;;;;7.53;6.83;;;17.90;97.10;;;;;;6258699;28;20240;-61
2022/05/06 13:14:29;;;;;;;8.70;7.90;;;17.90;97.20;;;;;;6259639;28;20610;-63
2022/05/06 13:17:32;;;;;;;7.10;6.50;;;17.90;97.40;;;;;;6262784;28;20476;-62
2022/05/06 13:20:35;;;;;;;7.80;7.10;;;17.90;97.50;;;;;;6261026;28;20471;-63
2022/05/06 13:23:42;;;;;;;10.70;7.80;;;17.90;97.40;;;;;;6263808;28;20793;-64
2022/05/06 13:26:45;;;;;;;8.67;7.87;;;18.00;97.50;;;;;;6261518;28;20815;-64
2022/05/06 13:29:50;;;;;;;8.60;7.60;;;18.10;97.50;;;;;;6253847;28;20943;-62
2022/05/06 13:32:53;;;;;;;7.67;7.07;;;18.10;97.20;;;;;;6263457;28;20806;-63
2022/05/06 13:35:58;;;;;;;8.17;7.47;;;18.20;97.10;;;;;;6255953;28;20459;-64
2022/05/06 13:39:02;;;;;;;8.73;7.43;;;18.40;96.90;;;;;;6258033;28;20708;-64
2022/05/06 13:42:05;;;;;;;8.20;7.50;;;18.50;96.50;;;;;;6254787;28;20227;-64
2022/05/06 13:45:11;;;;;;;7.90;7.20;;;18.70;96.50;;;;;;6251366;28;20539;-64
2022/05/06 13:48:14;;;;;;;8.20;7.50;;;18.80;96.30;;;;;;6241623;28;20235;-62
2022/05/06 13:51:18;;;;;;;9.70;7.20;;;18.90;96.00;;;;;;6262040;28;20230;-62
2022/05/06 13:54:21;;;;;;;7.50;6.90;;;18.90;95.70;;;;;;6263619;28;20250;-62
2022/05/06 14:00:46;;;;;;;9.03;7.50;;;19.00;95.50;;;;;;6263727;28;20235;-64
2022/05/06 14:03:49;;;;;;;7.40;6.80;;;18.90;95.40;;;;;;6256016;28;20240;-64
2022/05/06 14:06:52;;;;;;;7.33;6.83;;;19.00;95.30;;;;;;6262688;28;20573;-64
2022/05/06 14:09:56;;;;;;;7.23;6.63;;;19.00;94.90;;;;;;6260998;28;20204;-64
2022/05/06 14:12:59;;;;;;;7.73;7.10;;;18.90;95.10;;;;;;6264845;28;20553;-64
2022/05/06 14:16:04;;;;;;;9.90;7.30;;;18.90;95.00;;;;;;6260577;28;20234;-64
2022/05/06 14:19:08;;;;;;;7.70;7.00;;;18.80;95.20;;;;;;6262433;28;20259;-62
2022/05/06 14:22:11;;;;;;;8.43;7.60;;;18.80;95.10;;;;;;6261337;28;20237;-64
2022/05/06 14:25:16;;;;;;;9.43;8.00;;;18.80;95.30;;;;;;6263544;28;20244;-63
2022/05/06 14:28:21;;;;;;;7.80;7.10;;;18.80;95.40;;;;;;6274049;28;20251;-66
2022/05/06 14:31:26;;;;;;;7.30;6.60;;;18.70;95.30;;;;;;6252725;28;20553;-64
2022/05/06 14:34:30;;;;;;;7.90;7.30;;;18.70;95.20;;;;;;6251605;28;20235;-65
2022/05/06 14:37:33;;;;;;;8.17;7.47;;;18.60;95.40;;;;;;6232012;28;20573;-64
2022/05/06 14:40:36;;;;;;;7.40;6.80;;;18.60;95.60;;;;;;6222160;28;20240;-63
2022/05/06 14:43:39;;;;;;;7.50;6.80;;;18.70;95.40;;;;;;6225820;28;20340;-63
2022/05/06 14:46:44;;;;;;;7.13;6.43;;;18.60;95.40;;;;;;6246380;28;20228;-63
2022/05/06 14:49:47;;;;;;;8.13;7.30;;;18.60;95.40;;;;;;6250346;28;20256;-64
2022/05/06 14:52:51;;;;;;;7.07;6.37;;;18.50;95.80;;;;;;6250653;28;20243;-63
2022/05/06 14:55:54;;;;;;;8.23;7.53;;;18.50;95.60;;;;;;6250239;28;20236;-63
2022/05/06 14:58:58;;;;;;;7.67;6.97;;;18.60;95.40;;;;;;6250509;28;20228;-63
2022/05/06 15:02:02;;;;;;;7.30;6.60;;;18.60;95.60;;;;;;6247182;28;20240;-63
2022/05/06 15:05:07;;;;;;;7.90;7.10;;;18.70;95.30;;;;;;6257463;28;20661;-62
2022/05/06 15:08:10;;;;;;;7.87;7.17;;;18.80;95.30;;;;;;6265656;28;20240;-62
2022/05/06 15:11:14;;;;;;;8.07;7.30;;;18.70;94.70;;;;;;6261690;28;20691;-63
2022/05/06 15:14:17;;;;;;;9.60;8.80;;;18.70;94.70;;;;;;6251340;28;20235;-62
2022/05/06 15:17:21;;;;;;;8.03;7.27;;;18.70;94.70;;;;;;6247988;28;20256;-63
2022/05/06 15:20:25;;;;;;;7.67;6.97;;;18.70;94.90;;;;;;6252317;28;20266;-64
2022/05/06 15:23:28;;;;;;;8.50;7.70;;;18.80;94.90;;;;;;6266242;28;20254;-64
2022/05/06 15:26:31;;;;;;;7.80;7.10;;;18.90;94.80;;;;;;6268240;28;20246;-65
2022/05/06 15:29:36;;;;;;;8.87;8.07;;;18.90;95.30;;;;;;6263985;28;20228;-65
2022/05/06 15:32:40;;;;;;;8.13;7.43;;;19.00;95.30;;;;;;6265121;28;20224;-64
2022/05/06 15:35:43;;;;;;;8.70;7.73;;;19.00;95.40;;;;;;6255560;28;20538;-64
2022/05/06 15:38:46;;;;;;;8.10;7.43;;;19.00;95.30;;;;;;6259806;28;20219;-64
2022/05/06 15:41:50;;;;;;;9.00;8.10;;;19.10;95.30;;;;;;6257621;28;20566;-60
2022/05/06 15:44:53;;;;;;;7.37;6.77;;;19.10;95.10;;;;;;6251519;28;20219;-65
2022/05/06 15:47:57;;;;;;;8.60;7.60;;;19.10;94.90;;;;;;6252646;28;20244;-61
2022/05/06 15:51:01;;;;;;;7.50;6.90;;;19.00;95.30;;;;;;6256190;28;20243;-60
2022/05/06 15:54:04;;;;;;;8.87;8.07;;;19.10;95.40;;;;;;6261994;28;20223;-61
2022/05/06 15:57:08;;;;;;;8.80;8.10;;;19.20;95.20;;;;;;6255818;28;20517;-65
2022/05/06 16:00:12;;;;;;;8.90;8.00;;;19.20;95.20;;;;;;6262212;28;20668;-65
2022/05/06 16:03:17;;;;;;;9.13;6.87;;;19.30;95.10;;;;;;6256387;28;20219;-66
2022/05/06 16:06:20;;;;;;;7.93;7.07;;;19.40;95.40;;;;;;6259698;28;20254;-65
2022/05/06 16:09:25;;;;;;;7.90;7.20;;;19.40;95.00;;;;;;6263767;28;20247;-66
2022/05/06 16:12:28;;;;;;;7.77;7.13;;;19.40;94.90;;;;;;6263692;28;20327;-66
2022/05/06 16:15:31;;;;;;;8.43;7.70;;;19.40;94.80;;;;;;6262155;28;20224;-66
2022/05/06 16:18:36;;;;;;;8.87;8.07;;;19.50;94.80;;;;;;6264247;28;20243;-67
2022/05/06 16:21:39;;;;;;;8.43;7.20;;;19.40;94.80;;;;;;6264810;28;20228;-63
2022/05/06 16:24:42;;;;;;;8.00;7.40;;;19.30;94.70;;;;;;6279069;28;20239;-63
2022/05/06 16:27:45;;;;;;;8.90;8.20;;;19.20;94.90;;;;;;6278141;28;20224;-62
2022/05/06 16:30:49;;;;;;;8.13;7.53;;;19.20;94.90;;;;;;6260936;28;20219;-63
2022/05/06 16:37:24;;;;;;;7.60;7.03;;;19.10;95.00;;;;;;6181729;28;20240;-64
2022/05/06 16:40:28;;;;;;;8.17;7.47;;;19.00;94.80;;;;;;6230296;28;20233;-63
2022/05/06 16:43:31;;;;;;;9.57;8.57;;;19.00;94.80;;;;;;6231896;28;20245;-63